Time;durP1;ratioP1;P1;durP2;ratioP2;P2;SDS_P1;SDS_P2;PMS_P1;PMS_P2;Temp;Humidity;BMP_temperature;BMP_pressure;BME280_temperature;BME280_humidity;BME280_pressure;Samples;Min_cycle;Max_cycle;Signal;HPM_P1;HPM_P2
2023/05/18 00:00:58;;;;;;;2.50;0.60;;;;;;;10.77;100.00;100379.02;1460047;89;21435;-85
2023/05/18 00:03:24;;;;;;;2.43;1.30;;;;;;;10.75;100.00;100382.30;1450582;89;21728;-86
2023/05/18 00:05:50;;;;;;;3.10;0.60;;;;;;;10.73;100.00;100382.96;1450704;89;21426;-87
2023/05/18 00:08:16;;;;;;;1.23;0.80;;;;;;;10.59;100.00;100384.30;1455291;89;21375;-84
2023/05/18 00:10:44;;;;;;;0.90;0.60;;;;;;;10.60;100.00;100385.13;1457329;89;21383;-85
2023/05/18 00:13:10;;;;;;;0.97;0.77;;;;;;;10.57;100.00;100386.74;1458332;89;22381;-84
2023/05/18 00:15:36;;;;;;;0.67;0.67;;;;;;;10.58;100.00;100389.23;1435914;89;21412;-86
2023/05/18 00:18:02;;;;;;;0.93;0.70;;;;;;;10.55;100.00;100388.20;1455983;89;21405;-87
2023/05/18 00:20:28;;;;;;;0.93;0.70;;;;;;;10.53;100.00;100388.00;1458627;89;21376;-86
2023/05/18 00:22:54;;;;;;;0.83;0.70;;;;;;;10.46;100.00;100390.91;1456656;89;21576;-86
2023/05/18 00:25:21;;;;;;;0.83;0.60;;;;;;;10.49;100.00;100395.91;1450506;89;21383;-86
2023/05/18 00:27:48;;;;;;;1.57;0.67;;;;;;;10.45;100.00;100392.73;1454749;89;21354;-87
2023/05/18 00:30:15;;;;;;;1.70;0.83;;;;;;;10.47;100.00;100389.92;1457308;89;21346;-85
2023/05/18 00:32:42;;;;;;;1.00;0.70;;;;;;;10.51;100.00;100395.28;1450926;89;21397;-86
2023/05/18 00:35:09;;;;;;;1.30;0.90;;;;;;;10.58;100.00;100393.69;1453275;89;22403;-86
2023/05/18 00:37:35;;;;;;;0.93;0.50;;;;;;;10.58;100.00;100395.02;1455897;89;21412;-86
2023/05/18 00:40:05;;;;;;;0.97;0.60;;;;;;;10.62;100.00;100395.08;1453973;89;21426;-88
2023/05/18 00:42:30;;;;;;;0.50;0.50;;;;;;;10.65;100.00;100396.10;1457553;89;21449;-87
2023/05/18 00:44:56;;;;;;;3.57;1.20;;;;;;;10.60;100.00;100395.70;1454768;89;21434;-85
2023/05/18 00:47:22;;;;;;;2.07;0.83;;;;;;;10.65;100.00;100397.42;1452510;89;21583;-86
2023/05/18 00:49:48;;;;;;;0.70;0.60;;;;;;;10.64;100.00;100402.36;1459917;89;22249;-85
2023/05/18 00:52:15;;;;;;;3.30;0.80;;;;;;;10.64;100.00;100391.77;1460600;89;21523;-85
2023/05/18 00:54:42;;;;;;;1.43;0.70;;;;;;;10.66;100.00;100389.81;1454941;89;21368;-87
2023/05/18 00:57:08;;;;;;;4.03;0.90;;;;;;;10.65;100.00;100397.42;1453838;89;21398;-86
2023/05/18 00:59:35;;;;;;;1.00;0.60;;;;;;;10.69;100.00;100390.84;1459967;89;21552;-84
2023/05/18 01:02:02;;;;;;;0.73;0.73;;;;;;;10.66;100.00;100387.17;1434463;89;21376;-87
2023/05/18 01:04:30;;;;;;;0.60;0.60;;;;;;;10.60;100.00;100393.06;1453675;89;22248;-86
2023/05/18 01:06:57;;;;;;;1.40;0.63;;;;;;;10.61;100.00;100392.06;1455877;89;21574;-87
2023/05/18 01:09:24;;;;;;;4.13;0.70;;;;;;;10.58;100.00;100385.75;1461407;89;22219;-86
2023/05/18 01:12:13;;;;;;;0.90;0.70;;;;;;;10.61;100.00;100385.45;1449042;89;21508;-86
2023/05/18 01:15:01;;;;;;;3.17;0.80;;;;;;;10.57;100.00;100387.57;1456121;89;21441;-86
2023/05/18 01:17:38;;;;;;;2.60;0.67;;;;;;;10.51;100.00;100395.28;1456083;89;21464;-87
2023/05/18 01:20:10;;;;;;;1.07;0.90;;;;;;;10.45;100.00;100390.58;1439045;89;21671;-88
2023/05/18 01:23:16;;;;;;;1.37;1.07;;;;;;;10.47;100.00;100393.89;1459906;89;21500;-86
2023/05/18 01:25:57;;;;;;;3.70;0.73;;;;;;;10.46;100.00;100394.39;1451457;88;21590;-89
2023/05/18 01:28:26;;;;;;;;;;;;;;;10.46;100.00;100394.88;1459382;89;21273;-88
2023/05/18 01:30:53;;;;;;;0.60;0.60;;;;;;;10.40;100.00;100392.33;1437232;89;20337;-89
2023/05/18 01:33:20;;;;;;;3.37;0.63;;;;;;;10.42;100.00;100395.67;1459958;89;21390;-88
2023/05/18 01:35:49;;;;;;;1.00;0.87;;;;;;;10.38;100.00;100389.82;1428255;89;21463;-87
2023/05/18 01:38:22;;;;;;;5.60;1.10;;;;;;;10.41;100.00;100390.52;1454662;89;21530;-91
2023/05/18 01:41:13;;;;;;;2.87;0.77;;;;;;;10.44;100.00;100392.87;1456125;89;21442;-89
2023/05/18 01:44:11;;;;;;;0.60;0.60;;;;;;;10.35;100.00;100386.15;1450751;89;21677;-92
2023/05/18 01:47:01;;;;;;;1.23;0.93;;;;;;;10.35;100.00;100384.83;1456937;89;21456;-85
2023/05/18 01:49:55;;;;;;;2.87;1.00;;;;;;;10.33;100.00;100384.66;1454667;89;21523;-89
2023/05/18 01:52:30;;;;;;;1.67;0.80;;;;;;;10.36;100.00;100386.52;1456137;89;21604;-91
2023/05/18 01:55:01;;;;;;;1.03;0.57;;;;;;;10.34;100.00;100387.14;1456379;89;21604;-91
2023/05/18 01:57:30;;;;;;;0.70;0.62;;;;;;;10.33;100.00;100383.34;1453775;89;21471;-90
2023/05/18 02:00:02;;;;;;;0.80;0.70;;;;;;;10.31;100.00;100380.00;1454237;89;21597;-91
2023/05/18 02:02:29;;;;;;;1.37;1.07;;;;;;;10.35;100.00;100384.83;1456163;89;22254;-91
2023/05/18 02:04:55;;;;;;;1.57;1.10;;;;;;;10.34;100.00;100397.72;1461376;89;22261;-92
2023/05/18 02:07:21;;;;;;;0.53;0.50;;;;;;;10.34;100.00;100390.28;1456240;89;21404;-92
2023/05/18 02:09:48;;;;;;;1.97;0.90;;;;;;;10.34;100.00;100392.92;1456909;89;21528;-89
2023/05/18 02:12:14;;;;;;;1.30;0.70;;;;;;;10.38;100.00;100403.05;1454791;89;21547;-92
2023/05/18 02:14:40;;;;;;;5.03;0.80;;;;;;;10.46;100.00;100406.79;1459058;89;21390;-90
2023/05/18 02:17:07;;;;;;;1.13;0.80;;;;;;;10.46;100.00;100401.50;1456851;89;22470;-89
2023/05/18 02:19:36;;;;;;;3.37;0.70;;;;;;;10.51;100.00;100407.19;1452870;89;21549;-87
2023/05/18 02:22:01;;;;;;;3.93;0.70;;;;;;;10.53;100.00;100402.56;1458201;89;21581;-87
2023/05/18 02:24:27;;;;;;;1.10;0.70;;;;;;;10.58;100.00;100416.19;1445419;89;21360;-88
2023/05/18 02:26:53;;;;;;;2.67;0.90;;;;;;;10.57;100.00;100418.50;1451683;89;21405;-85
2023/05/18 02:29:20;;;;;;;0.80;0.60;;;;;;;10.60;100.00;100414.23;1448597;89;21479;-87
2023/05/18 02:31:46;;;;;;;2.37;0.70;;;;;;;10.65;100.00;100422.57;1436269;89;21420;-86
2023/05/18 02:34:14;;;;;;;1.83;0.60;;;;;;;10.66;100.00;100419.42;1461200;89;21398;-86
2023/05/18 02:36:41;;;;;;;0.93;0.67;;;;;;;10.70;100.00;100414.99;1436214;89;21449;-85
2023/05/18 02:39:09;;;;;;;2.87;0.80;;;;;;;10.68;100.00;100414.33;1458264;89;21353;-84
2023/05/18 02:41:36;;;;;;;1.20;0.80;;;;;;;10.71;100.00;100423.30;1455529;89;22553;-86
2023/05/18 02:44:03;;;;;;;6.90;0.83;;;;;;;10.71;100.00;100432.56;1437106;89;21412;-86
2023/05/18 02:46:30;;;;;;;0.93;0.63;;;;;;;10.74;100.00;100436.23;1461895;89;22425;-86
2023/05/18 02:48:57;;;;;;;3.50;2.17;;;;;;;10.80;100.00;100447.55;1450504;89;21383;-85
2023/05/18 02:51:23;;;;;;;3.80;0.90;;;;;;;10.88;100.00;100451.28;1456246;89;21390;-86
2023/05/18 02:53:50;;;;;;;3.27;0.77;;;;;;;10.91;100.00;100447.02;1457922;89;22396;-87
2023/05/18 02:56:17;;;;;;;1.47;0.80;;;;;;;10.91;100.00;100452.30;1456713;89;21339;-86
2023/05/18 02:58:44;;;;;;;2.20;0.70;;;;;;;10.87;100.00;100457.54;1464171;89;22331;-86
2023/05/18 03:01:13;;;;;;;0.60;0.60;;;;;;;10.84;100.00;100452.88;1452436;89;21553;-86
2023/05/18 03:03:42;;;;;;;1.80;1.10;;;;;;;10.82;100.00;100456.19;1457301;89;21457;-87
2023/05/18 03:06:09;;;;;;;0.67;0.57;;;;;;;10.78;100.00;100455.30;1457555;89;21398;-87
2023/05/18 03:08:36;;;;;;;0.70;0.50;;;;;;;10.78;100.00;100451.32;1438991;89;21634;-93
2023/05/18 03:11:02;;;;;;;0.43;0.43;;;;;;;10.73;100.00;100448.28;1458944;89;21828;-89
2023/05/18 03:13:28;;;;;;;0.63;0.50;;;;;;;10.76;100.00;100455.45;1453765;89;21464;-90
2023/05/18 03:15:55;;;;;;;0.90;0.67;;;;;;;10.78;100.00;100456.12;1437140;89;22361;-90
2023/05/18 03:18:23;;;;;;;0.57;0.57;;;;;;;10.79;100.00;100455.66;1455785;89;21405;-92
2023/05/18 03:20:50;;;;;;;0.87;0.60;;;;;;;10.75;100.00;100460.39;1460102;89;21405;-90
2023/05/18 03:23:23;;;;;;;0.77;0.60;;;;;;;10.75;100.00;100456.91;1456084;89;21324;-91
2023/05/18 03:25:52;;;;;;;1.20;0.57;;;;;;;10.75;100.00;100459.06;1464802;89;21405;-92
2023/05/18 03:28:14;;;;;;;0.50;0.40;;;;;;;10.77;100.00;100467.70;1431818;89;22566;-93
2023/05/18 03:30:41;;;;;;;3.23;0.97;;;;;;;10.74;100.00;100468.00;1445747;89;21368;-87
2023/05/18 03:33:07;;;;;;;0.70;0.70;;;;;;;10.79;100.00;100468.39;1437780;89;21479;-86
2023/05/18 03:35:33;;;;;;;6.00;1.03;;;;;;;10.82;100.00;100472.07;1452467;89;21530;-87
2023/05/18 03:37:59;;;;;;;1.70;0.87;;;;;;;10.89;100.00;100480.73;1454816;89;22412;-87
2023/05/18 03:40:25;;;;;;;3.00;0.60;;;;;;;10.94;100.00;100485.11;1465904;89;21527;-87
2023/05/18 03:42:52;;;;;;;1.40;0.60;;;;;;;10.93;100.00;100491.36;1453261;89;21426;-88
2023/05/18 03:45:18;;;;;;;1.40;0.67;;;;;;;10.94;100.00;100491.73;1453303;89;22343;-85
2023/05/18 03:47:45;;;;;;;0.80;0.80;;;;;;;10.92;100.00;100495.00;1460472;89;21375;-90
2023/05/18 03:50:11;;;;;;;0.50;0.50;;;;;;;10.91;100.00;100496.00;1457641;89;21397;-91
2023/05/18 03:52:38;;;;;;;8.33;1.83;;;;;;;10.92;100.00;100500.30;1438780;89;21382;-87
2023/05/18 03:55:05;;;;;;;0.77;0.60;;;;;;;10.93;100.00;100500.63;1456138;89;22367;-86
2023/05/18 03:57:32;;;;;;;1.10;0.80;;;;;;;10.90;100.00;100499.61;1455265;89;22410;-89
2023/05/18 03:59:58;;;;;;;2.07;0.90;;;;;;;10.81;100.00;100498.18;1446398;89;21426;-90
2023/05/18 04:02:25;;;;;;;2.17;0.70;;;;;;;10.78;100.00;100501.13;1460532;89;21485;-88
2023/05/18 04:04:52;;;;;;;1.37;1.00;;;;;;;10.78;100.00;100501.63;1438857;89;21545;-89
2023/05/18 04:07:23;;;;;;;2.13;1.07;;;;;;;10.80;100.00;100509.77;1457094;89;22321;-89
2023/05/18 04:09:51;;;;;;;1.72;1.07;;;;;;;10.84;100.00;100509.80;1455238;89;22396;-83
2023/05/18 04:12:17;;;;;;;1.33;0.97;;;;;;;10.87;100.00;100508.67;1454328;89;21353;-85
2023/05/18 04:14:48;;;;;;;5.60;0.90;;;;;;;10.88;100.00;100506.89;1450570;89;21376;-85
2023/05/18 04:17:12;;;;;;;0.80;0.70;;;;;;;10.90;100.00;100515.49;1457842;89;22455;-86
2023/05/18 04:19:38;;;;;;;2.27;0.87;;;;;;;10.89;100.00;100511.19;1456647;89;21449;-86
2023/05/18 04:22:06;;;;;;;1.50;1.00;;;;;;;10.91;100.00;100518.50;1461709;89;21354;-85
2023/05/18 04:24:34;;;;;;;4.23;0.87;;;;;;;10.97;100.00;100521.88;1458410;89;21405;-86
2023/05/18 04:27:01;;;;;;;6.67;1.17;;;;;;;10.95;100.00;100515.89;1446473;89;21567;-86
2023/05/18 04:29:29;;;;;;;1.77;0.70;;;;;;;10.94;100.00;100519.53;1455500;89;21375;-85
2023/05/18 04:32:01;;;;;;;2.53;0.80;;;;;;;10.95;100.00;100522.52;1449791;89;21488;-83
2023/05/18 04:34:30;;;;;;;0.80;0.60;;;;;;;11.00;100.00;100525.55;1454550;89;21553;-90
2023/05/18 04:36:59;;;;;;;0.60;0.60;;;;;;;11.04;100.00;100528.23;1457566;89;22367;-90
2023/05/18 04:39:26;;;;;;;0.93;0.80;;;;;;;11.12;100.00;100533.63;1458094;89;21353;-88
2023/05/18 04:41:57;;;;;;;0.67;0.60;;;;;;;11.18;100.00;100540.98;1459447;89;21390;-89
2023/05/18 04:44:26;;;;;;;;;;;;;;;11.22;100.00;100531.77;1454333;89;22226;-90
2023/05/18 04:46:53;;;;;;;1.37;0.77;;;;;;;11.28;100.00;100531.67;1457524;89;20968;-90
2023/05/18 04:49:24;;;;;;;1.47;0.70;;;;;;;11.33;100.00;100543.95;1452912;89;21353;-89
2023/05/18 04:51:57;;;;;;;1.80;1.13;;;;;;;11.40;100.00;100534.94;1456961;89;21863;-90
2023/05/18 04:54:31;;;;;;;1.43;0.70;;;;;;;11.40;100.00;100535.76;1457418;89;22306;-88
2023/05/18 04:56:58;;;;;;;1.83;0.90;;;;;;;11.33;100.00;100537.33;1455455;89;21435;-89
2023/05/18 04:59:29;;;;;;;1.30;0.73;;;;;;;11.35;100.00;100544.64;1450693;89;21426;-88
2023/05/18 05:01:53;;;;;;;0.60;0.57;;;;;;;11.32;100.00;100545.44;1454303;89;21552;-88
2023/05/18 05:04:21;;;;;;;1.13;0.70;;;;;;;11.35;100.00;100545.14;1450012;89;21376;-89
2023/05/18 05:06:47;;;;;;;2.37;0.80;;;;;;;11.32;100.00;100546.77;1456915;89;21426;-89
2023/05/18 05:09:13;;;;;;;0.80;0.80;;;;;;;11.36;100.00;100548.13;1457580;89;22049;-89
2023/05/18 05:11:43;;;;;;;0.63;0.63;;;;;;;11.45;100.00;100548.55;1434579;89;22308;-90
2023/05/18 05:14:12;;;;;;;1.47;0.70;;;;;;;11.47;100.00;100553.20;1456125;89;21383;-91
2023/05/18 05:16:38;;;;;;;1.10;1.00;;;;;;;11.51;100.00;100554.09;1455736;89;21442;-88
2023/05/18 05:19:05;;;;;;;0.80;0.67;;;;;;;11.58;100.00;100556.97;1450711;89;22455;-88
2023/05/18 05:21:31;;;;;;;1.73;1.07;;;;;;;11.62;100.00;100564.12;1452076;89;21405;-86
2023/05/18 05:23:58;;;;;;;2.33;0.63;;;;;;;11.67;100.00;100559.20;1454031;89;22226;-85
2023/05/18 05:26:25;;;;;;;0.73;0.60;;;;;;;11.66;100.00;100562.35;1455978;89;21391;-87
2023/05/18 05:28:51;;;;;;;0.70;0.50;;;;;;;11.60;100.00;100562.96;1451192;89;22337;-85
2023/05/18 05:31:17;;;;;;;0.60;0.60;;;;;;;11.67;100.00;100567.98;1452188;89;21412;-85
2023/05/18 05:33:44;;;;;;;1.43;0.90;;;;;;;11.75;100.00;100568.06;1453400;89;21519;-86
2023/05/18 05:36:10;;;;;;;2.90;0.83;;;;;;;11.86;100.00;100568.37;1451540;89;22307;-87
2023/05/18 05:38:36;;;;;;;1.63;0.80;;;;;;;12.01;100.00;100573.95;1460338;89;21287;-89
2023/05/18 05:41:03;;;;;;;1.33;0.70;;;;;;;12.07;100.00;100577.32;1438019;89;21560;-87
2023/05/18 05:43:29;;;;;;;0.97;0.80;;;;;;;12.08;100.00;100582.95;1451397;89;21361;-89
2023/05/18 05:45:56;;;;;;;4.77;1.00;;;;;;;12.13;100.00;100579.36;1458108;89;21637;-87
2023/05/18 05:48:22;;;;;;;0.63;0.60;;;;;;;12.17;100.00;100586.53;1461448;89;21375;-88
2023/05/18 05:50:49;;;;;;;1.60;0.90;;;;;;;12.24;100.00;100585.41;1442209;89;21404;-89
2023/05/18 05:53:19;;;;;;;1.00;0.70;;;;;;;12.33;100.00;100589.79;1450975;89;22344;-90
2023/05/18 05:55:45;;;;;;;0.78;0.62;;;;;;;12.36;100.00;100590.80;1456239;89;21324;-87
2023/05/18 05:58:12;;;;;;;1.20;0.83;;;;;;;12.39;100.00;100596.63;1453761;89;22507;-87
2023/05/18 06:00:41;;;;;;;1.30;0.73;;;;;;;12.52;100.00;100598.89;1452611;89;21405;-90
2023/05/18 06:03:15;;;;;;;1.47;0.93;;;;;;;12.57;100.00;100604.57;1457454;89;22532;-88
2023/05/18 06:05:41;;;;;;;1.67;0.80;;;;;;;12.65;100.00;100609.91;1449643;89;22499;-88
2023/05/18 06:08:08;;;;;;;0.97;0.87;;;;;;;12.75;100.00;100615.12;1453230;89;21309;-90
2023/05/18 06:10:34;;;;;;;0.60;0.60;;;;;;;12.84;100.00;100610.70;1453758;89;21604;-88
2023/05/18 06:13:00;;;;;;;0.70;0.70;;;;;;;12.96;100.00;100613.41;1456154;89;21442;-88
2023/05/18 06:15:27;;;;;;;1.07;0.87;;;;;;;12.97;100.00;100616.39;1453468;89;21375;-88
2023/05/18 06:17:53;;;;;;;0.87;0.70;;;;;;;13.01;100.00;100620.41;1436262;89;21883;-88
2023/05/18 06:20:19;;;;;;;1.10;1.00;;;;;;;12.96;100.00;100624.03;1451378;89;22329;-90
2023/05/18 06:22:46;;;;;;;3.73;0.90;;;;;;;12.95;100.00;100625.04;1456638;89;21589;-87
2023/05/18 06:25:12;;;;;;;0.83;0.67;;;;;;;12.99;100.00;100622.39;1456094;89;21338;-91
2023/05/18 06:27:38;;;;;;;1.00;1.00;;;;;;;13.05;100.00;100627.56;1455703;89;22542;-90
2023/05/18 06:30:09;;;;;;;1.40;0.93;;;;;;;13.11;100.00;100630.91;1436036;89;21405;-91
2023/05/18 06:36:16;;;;;;;2.30;1.00;;;;;;;12.97;100.00;100634.98;1454503;89;20337;-92
2023/05/18 06:38:42;;;;;;;2.97;0.80;;;;;;;12.86;100.00;100632.63;1454839;89;21383;-88
2023/05/18 06:41:08;;;;;;;3.13;1.00;;;;;;;12.92;100.00;100643.09;1453076;89;21530;-88
2023/05/18 06:43:34;;;;;;;1.40;1.10;;;;;;;12.84;100.00;100645.23;1457718;89;21457;-88
2023/05/18 06:46:01;;;;;;;2.10;1.00;;;;;;;12.76;100.00;100649.98;1455851;89;22315;-88
2023/05/18 06:48:28;;;;;;;3.20;1.40;;;;;;;12.86;100.00;100656.03;1454338;89;21345;-88
2023/05/18 06:50:55;;;;;;;1.63;0.90;;;;;;;12.92;100.00;100661.69;1454528;89;22224;-88
2023/05/18 06:53:22;;;;;;;4.63;1.30;;;;;;;12.96;100.00;100662.55;1448751;89;21274;-84
2023/05/18 06:55:48;;;;;;;1.77;0.90;;;;;;;13.04;100.00;100659.95;1470785;89;21383;-88
2023/05/18 06:58:14;;;;;;;1.70;1.30;;;;;;;13.05;100.00;100662.94;1455128;89;21598;-90
2023/05/18 07:00:40;;;;;;;2.63;1.17;;;;;;;13.15;100.00;100665.97;1437276;89;21857;-86
2023/05/18 07:03:07;;;;;;;1.60;1.20;;;;;;;13.27;100.00;100668.23;1454706;89;22270;-88
2023/05/18 07:05:33;;;;;;;2.53;1.40;;;;;;;13.36;100.00;100677.08;1451050;89;21557;-86
2023/05/18 07:07:59;;;;;;;1.07;0.67;;;;;;;13.38;100.00;100677.76;1450583;89;21353;-88
2023/05/18 07:10:27;;;;;;;3.53;1.00;;;;;;;13.43;100.00;100683.41;1451189;89;21677;-89
2023/05/18 07:12:54;;;;;;;1.53;0.90;;;;;;;13.48;100.00;100681.61;1453852;88;21442;-88
2023/05/18 07:15:20;;;;;;;1.87;1.10;;;;;;;13.65;100.00;100685.99;1455611;89;21294;-86
2023/05/18 07:17:46;;;;;;;2.00;1.07;;;;;;;13.79;100.00;100691.20;1436597;89;21685;-87
2023/05/18 07:20:13;;;;;;;5.50;1.00;;;;;;;13.90;100.00;100698.88;1455103;89;21398;-89
2023/05/18 07:22:39;;;;;;;1.90;1.10;;;;;;;14.12;100.00;100696.58;1454510;89;21575;-89
2023/05/18 07:25:05;;;;;;;2.17;1.53;;;;;;;14.30;100.00;100693.29;1456127;89;21308;-87
2023/05/18 07:27:33;;;;;;;1.27;0.90;;;;;;;14.40;100.00;100703.77;1453552;89;21511;-87
2023/05/18 07:30:00;;;;;;;4.73;1.40;;;;;;;14.34;100.00;100701.27;1436250;89;21404;-86
2023/05/18 07:32:26;;;;;;;2.30;1.20;;;;;;;14.26;100.00;100707.91;1453458;89;21592;-86
2023/05/18 07:34:52;;;;;;;0.77;0.67;;;;;;;14.16;100.00;100712.57;1416173;89;21391;-88
2023/05/18 07:37:19;;;;;;;1.63;1.10;;;;;;;14.07;100.00;100710.86;1455017;89;21368;-88
2023/05/18 07:39:45;;;;;;;1.07;0.87;;;;;;;14.11;100.00;100713.55;1457145;89;22542;-86
2023/05/18 07:42:11;;;;;;;2.07;1.53;;;;;;;14.08;100.00;100707.23;1453690;89;21434;-88
2023/05/18 07:44:37;;;;;;;0.97;0.90;;;;;;;14.19;100.00;100709.58;1453086;89;21567;-85
2023/05/18 07:47:03;;;;;;;2.30;1.20;;;;;;;14.19;100.00;100713.57;1454534;89;21375;-88
2023/05/18 07:49:30;;;;;;;0.83;0.80;;;;;;;14.02;100.00;100717.20;1455701;89;21658;-86
2023/05/18 07:51:57;;;;;;;1.37;0.90;;;;;;;14.03;100.00;100722.34;1453188;89;22410;-89
2023/05/18 07:54:23;;;;;;;0.83;0.83;;;;;;;13.95;100.00;100732.48;1451402;89;21545;-88
2023/05/18 07:56:49;;;;;;;1.20;1.10;;;;;;;13.83;100.00;100731.09;1452461;89;21383;-88
2023/05/18 07:59:17;;;;;;;0.80;0.80;;;;;;;13.79;100.00;100733.75;1450878;89;21411;-88
2023/05/18 08:01:44;;;;;;;2.30;0.80;;;;;;;13.73;100.00;100736.56;1455697;89;21397;-89
2023/05/18 08:04:10;;;;;;;0.83;0.83;;;;;;;13.59;100.00;100731.02;1454602;89;21338;-89
2023/05/18 08:06:37;;;;;;;1.47;0.90;;;;;;;13.56;100.00;100735.33;1454455;89;21729;-88
2023/05/18 08:09:03;;;;;;;0.70;0.70;;;;;;;13.55;100.00;100737.12;1456935;89;21560;-89
2023/05/18 08:11:29;;;;;;;0.90;0.80;;;;;;;13.54;100.00;100734.97;1452595;89;21633;-86
2023/05/18 08:13:55;;;;;;;1.00;0.90;;;;;;;13.63;100.00;100737.67;1451922;89;22367;-88
2023/05/18 08:16:21;;;;;;;0.70;0.70;;;;;;;13.75;100.00;100745.22;1455680;89;22426;-88
2023/05/18 08:18:47;;;;;;;4.30;1.33;;;;;;;13.82;100.00;100745.41;1452755;89;21450;-89
2023/05/18 08:21:14;;;;;;;0.93;0.70;;;;;;;13.92;100.00;100745.26;1437838;89;21589;-89
2023/05/18 08:23:40;;;;;;;0.80;0.80;;;;;;;14.04;100.00;100749.78;1453535;89;21301;-91
2023/05/18 08:26:11;;;;;;;2.83;0.90;;;;;;;14.13;100.00;100748.83;1451235;89;22624;-89
2023/05/18 08:28:38;;;;;;;1.57;0.90;;;;;;;14.18;100.00;100749.16;1435827;89;21508;-91
2023/05/18 08:31:05;;;;;;;2.30;0.90;;;;;;;14.28;100.00;100755.17;1437921;89;21512;-91
2023/05/18 08:33:31;;;;;;;3.57;0.80;;;;;;;14.25;100.00;100757.34;1453419;89;21383;-88
2023/05/18 08:35:57;;;;;;;1.17;0.87;;;;;;;14.25;100.00;100756.84;1456233;89;21784;-89
2023/05/18 08:38:23;;;;;;;3.33;0.90;;;;;;;14.19;100.00;100760.98;1452889;89;21854;-88
2023/05/18 08:41:12;;;;;;;2.03;0.97;;;;;;;14.20;100.00;100764.47;1436284;89;21531;-90
2023/05/18 08:43:43;;;;;;;0.90;0.70;;;;;;;14.24;100.00;100759.14;1456127;89;21374;-90
2023/05/18 08:46:20;;;;;;;5.37;1.00;;;;;;;14.33;100.00;100761.35;1456670;89;21457;-90
2023/05/18 08:48:46;;;;;;;1.23;0.63;;;;;;;14.40;100.00;100755.19;1455726;89;21303;-90
2023/05/18 08:51:19;;;;;;;1.77;0.90;;;;;;;14.44;100.00;100756.54;1436698;89;21331;-88
2023/05/18 08:53:53;;;;;;;0.70;0.70;;;;;;;14.40;100.00;100752.52;1456266;89;21583;-90
2023/05/18 08:56:25;;;;;;;0.87;0.87;;;;;;;14.49;100.00;100745.37;1452191;89;22174;-89
2023/05/18 08:58:57;;;;;;;1.93;1.60;;;;;;;14.47;100.00;100750.53;1471624;89;21495;-90
2023/05/18 09:01:27;;;;;;;1.73;0.70;;;;;;;14.43;100.00;100754.85;1454391;89;21346;-89
2023/05/18 09:03:56;;;;;;;1.02;0.82;;;;;;;14.40;100.00;100755.69;1455198;89;21434;-89
2023/05/18 09:06:24;;;;;;;1.00;0.90;;;;;;;14.35;100.00;100762.83;1362388;91;21508;-92
2023/05/18 09:08:53;;;;;;;1.90;0.90;;;;;;;14.42;100.00;100754.53;1378365;89;21332;-89
2023/05/18 09:11:23;;;;;;;1.63;0.93;;;;;;;14.44;100.00;100759.20;1426194;91;21479;-90
2023/05/18 09:13:50;;;;;;;1.92;0.90;;;;;;;14.42;100.00;100757.20;1487985;89;21324;-87
2023/05/18 09:16:17;;;;;;;0.70;0.70;;;;;;;14.40;100.00;100768.50;1380445;89;21265;-90
2023/05/18 09:18:43;;;;;;;1.33;1.23;;;;;;;14.43;100.00;100761.52;1380161;89;21399;-89
2023/05/18 09:21:11;;;;;;;1.13;1.03;;;;;;;14.50;100.00;100754.19;1380468;89;21324;-90
2023/05/18 09:23:42;;;;;;;2.23;1.27;;;;;;;14.51;100.00;100755.87;1380276;89;21228;-90
2023/05/18 09:26:12;;;;;;;1.00;0.80;;;;;;;14.56;100.00;100753.59;1527814;89;21324;-90
2023/05/18 09:28:41;;;;;;;1.15;0.93;;;;;;;14.68;100.00;100756.25;1377005;89;21272;-90
2023/05/18 09:31:17;;;;;;;1.80;1.10;;;;;;;14.78;100.00;100756.07;1377981;89;21220;-87
2023/05/18 09:33:45;;;;;;;3.17;1.00;;;;;;;14.82;100.00;100757.42;1537297;89;22074;-87
2023/05/18 09:36:16;;;;;;;1.10;1.00;;;;;;;14.94;100.00;100751.25;1386072;89;21481;-91
2023/05/18 09:38:45;;;;;;;6.60;1.80;;;;;;;14.89;100.00;100753.07;1462874;89;21478;-86
2023/05/18 09:41:15;;;;;;;1.37;1.10;;;;;;;14.95;100.00;100752.91;1458340;89;21332;-89
2023/05/18 09:43:45;;;;;;;6.28;1.32;;;;;;;15.06;100.00;100745.89;1455608;89;21604;-90
2023/05/18 09:46:13;;;;;;;1.22;0.88;;;;;;;15.04;99.25;100750.55;1454038;89;22381;-90
2023/05/18 09:48:51;;;;;;;2.00;0.83;;;;;;;15.02;99.70;100748.07;1438486;89;21471;-90
2023/05/18 09:51:18;;;;;;;1.27;1.03;;;;;;;14.97;98.23;100756.23;1437703;89;22492;-88
2023/05/18 09:53:55;;;;;;;1.50;1.40;;;;;;;15.05;99.47;100764.23;1452742;89;21398;-89
2023/05/18 09:56:23;;;;;;;3.10;1.00;;;;;;;15.18;100.00;100756.53;1455221;89;22434;-90
2023/05/18 09:58:50;;;;;;;2.70;1.10;;;;;;;15.31;99.84;100760.84;1454320;89;21397;-87
2023/05/18 10:01:16;;;;;;;1.10;0.80;;;;;;;15.33;98.58;100760.19;1459986;89;21427;-90
2023/05/18 10:03:44;;;;;;;2.07;0.93;;;;;;;15.44;99.23;100759.47;1455339;89;21479;-81
2023/05/18 10:06:12;;;;;;;1.00;0.90;;;;;;;15.52;99.51;100759.45;1452912;89;21464;-82
2023/05/18 10:08:38;;;;;;;0.90;0.90;;;;;;;15.74;97.11;100764.58;1436130;89;21523;-85
2023/05/18 10:11:06;;;;;;;0.80;0.80;;;;;;;15.81;95.86;100760.71;1454659;89;21456;-86
2023/05/18 10:13:33;;;;;;;1.57;0.80;;;;;;;15.76;95.47;100764.71;1455783;89;21374;-85
2023/05/18 10:16:06;;;;;;;1.73;1.00;;;;;;;15.86;95.38;100768.52;1455764;89;21353;-86
2023/05/18 10:18:36;;;;;;;0.70;0.70;;;;;;;15.92;93.65;100767.83;1453273;89;21442;-86
2023/05/18 10:21:05;;;;;;;1.03;0.70;;;;;;;15.94;94.88;100772.97;1425784;89;21346;-86
2023/05/18 10:23:35;;;;;;;1.20;0.95;;;;;;;15.90;93.81;100773.01;1445738;89;21516;-86
2023/05/18 10:26:08;;;;;;;1.07;0.83;;;;;;;15.96;94.38;100773.64;1450511;89;21346;-87
2023/05/18 10:28:46;;;;;;;0.77;0.77;;;;;;;15.85;93.56;100768.17;1458275;89;21324;-78
2023/05/18 10:31:15;;;;;;;3.50;0.80;;;;;;;15.89;94.43;100773.52;1455178;89;21434;-77
2023/05/18 10:33:44;;;;;;;0.93;0.83;;;;;;;15.72;93.27;100775.41;1446235;89;21391;-76
2023/05/18 10:36:12;;;;;;;2.30;0.70;;;;;;;15.63;94.13;100776.42;1456657;89;21332;-78
2023/05/18 10:38:39;;;;;;;1.47;0.70;;;;;;;15.56;93.71;100772.28;1464205;89;21339;-79
2023/05/18 10:41:06;;;;;;;0.80;0.80;;;;;;;15.53;94.53;100775.77;1449531;89;21487;-78
2023/05/18 10:43:34;;;;;;;1.50;1.40;;;;;;;15.41;94.25;100778.48;1428970;89;22233;-78
2023/05/18 10:46:01;;;;;;;0.73;0.60;;;;;;;15.49;95.54;100774.47;1455967;89;21257;-79
2023/05/18 10:48:28;;;;;;;3.73;0.90;;;;;;;15.44;94.42;100779.47;1449139;89;21552;-79
2023/05/18 10:50:56;;;;;;;2.93;1.00;;;;;;;15.46;93.81;100783.64;1458098;89;21427;-78
2023/05/18 10:53:26;;;;;;;3.53;1.03;;;;;;;15.57;94.58;100781.94;1456033;89;21353;-78
2023/05/18 10:55:53;;;;;;;2.30;1.50;;;;;;;15.67;95.10;100776.39;1452296;89;21479;-78
2023/05/18 10:58:24;;;;;;;3.90;0.70;;;;;;;15.79;94.87;100775.55;1450038;89;21346;-79
2023/05/18 11:00:56;;;;;;;2.42;1.00;;;;;;;15.78;93.72;100773.39;1447205;88;22307;-79
2023/05/18 11:03:24;;;;;;;1.07;0.80;;;;;;;15.87;92.51;100774.69;1461102;89;22203;-78
2023/05/18 11:06:09;;;;;;;0.87;0.83;;;;;;;15.79;91.29;100780.41;1434264;89;21582;-78
2023/05/18 11:08:49;;;;;;;0.70;0.70;;;;;;;15.64;90.73;100778.08;1454546;89;21373;-79
2023/05/18 11:11:16;;;;;;;3.52;1.00;;;;;;;15.53;90.53;100774.44;1457336;89;21471;-90
2023/05/18 11:13:48;;;;;;;2.60;0.90;;;;;;;15.47;90.19;100775.95;1442472;89;21442;-90
2023/05/18 11:16:16;;;;;;;1.30;0.90;;;;;;;15.53;91.40;100775.77;1453143;89;21604;-89
2023/05/18 11:18:51;;;;;;;1.90;0.77;;;;;;;15.35;90.89;100776.82;1463893;89;21486;-90
2023/05/18 11:21:23;;;;;;;1.70;0.87;;;;;;;15.42;91.52;100780.14;1453243;89;21376;-89
2023/05/18 11:24:31;;;;;;;1.30;0.80;;;;;;;15.20;91.22;100779.86;1453750;89;21317;-90
2023/05/18 11:27:02;;;;;;;4.30;1.40;;;;;;;15.19;93.00;100781.34;1451256;89;21360;-91
2023/05/18 11:29:38;;;;;;;;;;;;;;;15.06;91.07;100784.03;1457033;89;22395;-89